Naples, FL

4:43 AM EDT on August 27, 2016 (GMT -0400)
Naples Municipal | | Change Station

Elev 10 ft 26.16 °N, 81.77 °W | Updated 35 minutes ago

Scattered Clouds
Scattered Clouds
77 °F
Feels Like 77 °F
N
6
Wind Variable Wind from NE

Today
High -- | Low -- °F
--% Chance of Precip.
Yesterday
High -- | Low -- °F
Precip. -- in
Pressure 29.89 in
Visibility 10.0 miles
Clouds Scattered Clouds 600 ft
Dew Point 76 °F
Humidity 96%
Rainfall 0.00 in
Snow Depth Not available.
7:05 AM 7:51 PM
Waning Crescent, 26% visible
SPECI KAPF 270808Z AUTO 05005KT 10SM SCT006 25/24 A2989 RMK AO2 T02500244 $
Pressure 29.89 in
Visibility 10.0 miles
Clouds Scattered Clouds 600 ft
Dew Point 76 °F
Humidity 96%
Rainfall 0.00 in
Snow Depth Not available.
7:05 AM 7:51 PM
Waning Crescent, 26% visible
SPECI KAPF 270808Z AUTO 05005KT 10SM SCT006 25/24 A2989 RMK AO2 T02500244 $

10-Day Weather Forecast

Almanac

Astronomy

Aug. 27, 2016 Rise Set
Actual Time
Civil Twilight
Nautical Twilight
Astronomical Twilight
Moon
Length of Visible Light
Length of Day
Tomorrow will be .
, % of the Moon is Illuminated

Today's Extremes

State Highs State Lows

Community

WunderPhotos

Upload Photos

1,935,303 photos uploaded!

WunderBlog® & News

Nearby

Air Quality

  Air Quality AQ Index Pollutant
Not available.

Snow Depth

Station Depth Elevation

Earthquake Activity

City Distance Mag. Time & Date
Minimum magnitude displayed is 2.5.

Coastal Water Temperatures

Place Temperature

Stations

Nearby Weather Stations

Station Location Temp. Windchill Dew Point Humidity Wind Precip. Elev Updated Type
                   

Watches & Warnings

There are currently no watches in effect.